sensor_id;sensor_type;location;lat;lon;timestamp;P1;durP1;ratioP1;P2;durP2;ratioP2
47958;SDS011;33718;50.910;-1.514;2023-02-12T00:01:12;24.05;;;13.85;;
47958;SDS011;33718;50.910;-1.514;2023-02-12T00:03:17;25.27;;;12.50;;
47958;SDS011;33718;50.910;-1.514;2023-02-12T00:05:38;23.80;;;13.10;;
47958;SDS011;33718;50.910;-1.514;2023-02-12T00:07:40;23.90;;;13.40;;
47958;SDS011;33718;50.910;-1.514;2023-02-12T00:09:41;30.25;;;15.10;;
47958;SDS011;33718;50.910;-1.514;2023-02-12T00:11:43;22.83;;;13.52;;
47958;SDS011;33718;50.910;-1.514;2023-02-12T00:13:44;24.17;;;12.73;;
47958;SDS011;33718;50.910;-1.514;2023-02-12T00:15:49;24.30;;;12.95;;
47958;SDS011;33718;50.910;-1.514;2023-02-12T00:17:54;28.45;;;13.35;;
47958;SDS011;33718;50.910;-1.514;2023-02-12T00:20:14;19.00;;;12.80;;
47958;SDS011;33718;50.910;-1.514;2023-02-12T00:22:16;25.65;;;12.82;;
47958;SDS011;33718;50.910;-1.514;2023-02-12T00:24:17;22.35;;;12.38;;
47958;SDS011;33718;50.910;-1.514;2023-02-12T00:26:19;30.95;;;14.02;;
47958;SDS011;33718;50.910;-1.514;2023-02-12T00:28:21;33.47;;;13.45;;
47958;SDS011;33718;50.910;-1.514;2023-02-12T00:30:26;20.00;;;12.68;;
47958;SDS011;33718;50.910;-1.514;2023-02-12T00:32:30;25.13;;;13.52;;
47958;SDS011;33718;50.910;-1.514;2023-02-12T00:34:35;28.98;;;15.57;;
47958;SDS011;33718;50.910;-1.514;2023-02-12T00:36:55;25.08;;;13.13;;
47958;SDS011;33718;50.910;-1.514;2023-02-12T00:38:56;20.83;;;14.25;;
47958;SDS011;33718;50.910;-1.514;2023-02-12T00:40:58;26.63;;;15.05;;
47958;SDS011;33718;50.910;-1.514;2023-02-12T00:43:02;22.95;;;14.00;;
47958;SDS011;33718;50.910;-1.514;2023-02-12T00:45:06;22.30;;;12.85;;
47958;SDS011;33718;50.910;-1.514;2023-02-12T00:47:27;24.17;;;14.25;;
47958;SDS011;33718;50.910;-1.514;2023-02-12T00:51:35;25.87;;;15.90;;
47958;SDS011;33718;50.910;-1.514;2023-02-12T00:55:41;35.38;;;14.95;;
47958;SDS011;33718;50.910;-1.514;2023-02-12T00:57:45;30.48;;;16.58;;
47958;SDS011;33718;50.910;-1.514;2023-02-12T00:59:50;39.00;;;16.75;;
47958;SDS011;33718;50.910;-1.514;2023-02-12T01:01:52;29.25;;;16.63;;
47958;SDS011;33718;50.910;-1.514;2023-02-12T01:03:57;32.95;;;16.13;;
47958;SDS011;33718;50.910;-1.514;2023-02-12T01:06:05;35.65;;;17.85;;
47958;SDS011;33718;50.910;-1.514;2023-02-12T01:08:10;36.13;;;17.92;;
47958;SDS011;33718;50.910;-1.514;2023-02-12T01:10:15;38.13;;;18.33;;
47958;SDS011;33718;50.910;-1.514;2023-02-12T01:12:33;39.53;;;18.55;;
47958;SDS011;33718;50.910;-1.514;2023-02-12T01:14:45;36.72;;;19.67;;
47958;SDS011;33718;50.910;-1.514;2023-02-12T01:16:59;40.70;;;19.88;;
47958;SDS011;33718;50.910;-1.514;2023-02-12T01:19:14;37.97;;;18.27;;
47958;SDS011;33718;50.910;-1.514;2023-02-12T01:21:28;42.47;;;19.40;;
47958;SDS011;33718;50.910;-1.514;2023-02-12T01:23:39;29.65;;;15.20;;
47958;SDS011;33718;50.910;-1.514;2023-02-12T01:25:49;34.13;;;15.80;;
47958;SDS011;33718;50.910;-1.514;2023-02-12T01:28:14;44.05;;;19.27;;
47958;SDS011;33718;50.910;-1.514;2023-02-12T01:30:25;36.28;;;17.80;;
47958;SDS011;33718;50.910;-1.514;2023-02-12T01:32:31;32.92;;;16.50;;
47958;SDS011;33718;50.910;-1.514;2023-02-12T01:34:43;34.00;;;16.77;;
47958;SDS011;33718;50.910;-1.514;2023-02-12T01:36:53;37.40;;;17.98;;
47958;SDS011;33718;50.910;-1.514;2023-02-12T01:39:07;36.60;;;17.73;;
47958;SDS011;33718;50.910;-1.514;2023-02-12T01:41:21;32.67;;;17.38;;
47958;SDS011;33718;50.910;-1.514;2023-02-12T01:43:23;32.13;;;16.23;;
47958;SDS011;33718;50.910;-1.514;2023-02-12T01:47:29;34.67;;;17.10;;
47958;SDS011;33718;50.910;-1.514;2023-02-12T01:49:32;34.42;;;16.38;;
47958;SDS011;33718;50.910;-1.514;2023-02-12T01:51:39;34.00;;;16.30;;
47958;SDS011;33718;50.910;-1.514;2023-02-12T01:53:43;33.55;;;16.33;;
47958;SDS011;33718;50.910;-1.514;2023-02-12T01:55:47;34.33;;;16.17;;
47958;SDS011;33718;50.910;-1.514;2023-02-12T01:57:49;41.33;;;18.45;;
47958;SDS011;33718;50.910;-1.514;2023-02-12T01:59:51;35.58;;;16.63;;
47958;SDS011;33718;50.910;-1.514;2023-02-12T02:01:54;30.52;;;16.60;;
47958;SDS011;33718;50.910;-1.514;2023-02-12T02:03:58;29.83;;;15.55;;
47958;SDS011;33718;50.910;-1.514;2023-02-12T02:06:02;36.10;;;15.75;;
47958;SDS011;33718;50.910;-1.514;2023-02-12T02:08:06;39.40;;;16.23;;
47958;SDS011;33718;50.910;-1.514;2023-02-12T02:10:11;33.40;;;16.17;;
47958;SDS011;33718;50.910;-1.514;2023-02-12T02:12:13;28.42;;;16.73;;
47958;SDS011;33718;50.910;-1.514;2023-02-12T02:14:34;39.22;;;16.73;;
47958;SDS011;33718;50.910;-1.514;2023-02-12T02:16:35;28.55;;;14.30;;
47958;SDS011;33718;50.910;-1.514;2023-02-12T02:18:42;30.17;;;14.70;;
47958;SDS011;33718;50.910;-1.514;2023-02-12T02:32:15;27.60;;;13.45;;
47958;SDS011;33718;50.910;-1.514;2023-02-12T02:34:33;17.08;;;12.02;;
47958;SDS011;33718;50.910;-1.514;2023-02-12T02:36:45;21.73;;;12.57;;
47958;SDS011;33718;50.910;-1.514;2023-02-12T02:41:13;26.42;;;13.57;;
47958;SDS011;33718;50.910;-1.514;2023-02-12T02:43:35;22.40;;;12.23;;
47958;SDS011;33718;50.910;-1.514;2023-02-12T02:45:51;21.52;;;12.65;;
47958;SDS011;33718;50.910;-1.514;2023-02-12T02:47:58;22.20;;;11.70;;
47958;SDS011;33718;50.910;-1.514;2023-02-12T02:50:01;19.27;;;12.02;;
47958;SDS011;33718;50.910;-1.514;2023-02-12T02:52:07;24.75;;;12.25;;
47958;SDS011;33718;50.910;-1.514;2023-02-12T02:54:27;23.65;;;12.68;;
47958;SDS011;33718;50.910;-1.514;2023-02-12T02:56:31;20.17;;;11.82;;
47958;SDS011;33718;50.910;-1.514;2023-02-12T02:58:55;21.80;;;11.95;;
47958;SDS011;33718;50.910;-1.514;2023-02-12T03:01:02;22.70;;;11.32;;
47958;SDS011;33718;50.910;-1.514;2023-02-12T03:03:10;17.48;;;11.05;;
47958;SDS011;33718;50.910;-1.514;2023-02-12T03:05:36;18.77;;;11.07;;
47958;SDS011;33718;50.910;-1.514;2023-02-12T03:07:41;23.33;;;12.82;;
47958;SDS011;33718;50.910;-1.514;2023-02-12T03:09:44;15.10;;;10.63;;
47958;SDS011;33718;50.910;-1.514;2023-02-12T03:11:47;18.67;;;11.10;;
47958;SDS011;33718;50.910;-1.514;2023-02-12T03:13:56;16.38;;;10.52;;
47958;SDS011;33718;50.910;-1.514;2023-02-12T03:16:02;16.88;;;10.93;;
47958;SDS011;33718;50.910;-1.514;2023-02-12T03:18:10;20.95;;;11.93;;
47958;SDS011;33718;50.910;-1.514;2023-02-12T03:22:27;14.50;;;9.40;;
47958;SDS011;33718;50.910;-1.514;2023-02-12T03:24:35;12.35;;;8.55;;
47958;SDS011;33718;50.910;-1.514;2023-02-12T03:26:38;15.63;;;8.70;;
47958;SDS011;33718;50.910;-1.514;2023-02-12T03:28:43;15.48;;;9.13;;
47958;SDS011;33718;50.910;-1.514;2023-02-12T03:31:00;9.75;;;7.47;;
47958;SDS011;33718;50.910;-1.514;2023-02-12T03:33:10;15.70;;;7.80;;
47958;SDS011;33718;50.910;-1.514;2023-02-12T03:35:37;13.65;;;8.98;;
47958;SDS011;33718;50.910;-1.514;2023-02-12T03:37:50;12.77;;;7.53;;
47958;SDS011;33718;50.910;-1.514;2023-02-12T03:42:00;12.15;;;7.22;;
47958;SDS011;33718;50.910;-1.514;2023-02-12T03:44:08;11.80;;;7.30;;
47958;SDS011;33718;50.910;-1.514;2023-02-12T03:46:16;11.70;;;7.80;;
47958;SDS011;33718;50.910;-1.514;2023-02-12T03:50:31;12.13;;;7.45;;
47958;SDS011;33718;50.910;-1.514;2023-02-12T03:52:52;10.88;;;7.10;;
47958;SDS011;33718;50.910;-1.514;2023-02-12T03:54:53;14.82;;;7.53;;
47958;SDS011;33718;50.910;-1.514;2023-02-12T03:59:03;7.32;;;5.60;;
47958;SDS011;33718;50.910;-1.514;2023-02-12T04:01:07;10.98;;;7.13;;
47958;SDS011;33718;50.910;-1.514;2023-02-12T04:03:10;10.32;;;7.20;;
47958;SDS011;33718;50.910;-1.514;2023-02-12T04:05:19;8.95;;;6.35;;
47958;SDS011;33718;50.910;-1.514;2023-02-12T04:07:39;13.00;;;6.40;;
47958;SDS011;33718;50.910;-1.514;2023-02-12T04:09:41;10.95;;;6.93;;
47958;SDS011;33718;50.910;-1.514;2023-02-12T04:16:24;8.73;;;5.38;;
47958;SDS011;33718;50.910;-1.514;2023-02-12T04:18:35;9.65;;;6.47;;
47958;SDS011;33718;50.910;-1.514;2023-02-12T04:23:04;8.52;;;6.05;;
47958;SDS011;33718;50.910;-1.514;2023-02-12T04:29:54;7.18;;;5.22;;
47958;SDS011;33718;50.910;-1.514;2023-02-12T04:34:17;7.93;;;5.28;;
47958;SDS011;33718;50.910;-1.514;2023-02-12T04:36:24;7.93;;;5.65;;
47958;SDS011;33718;50.910;-1.514;2023-02-12T04:38:48;8.02;;;5.63;;
47958;SDS011;33718;50.910;-1.514;2023-02-12T04:40:55;13.10;;;6.45;;
47958;SDS011;33718;50.910;-1.514;2023-02-12T04:43:02;8.43;;;5.50;;
47958;SDS011;33718;50.910;-1.514;2023-02-12T04:45:05;9.68;;;6.00;;
47958;SDS011;33718;50.910;-1.514;2023-02-12T04:47:11;11.45;;;6.35;;
47958;SDS011;33718;50.910;-1.514;2023-02-12T04:49:17;6.57;;;5.38;;
47958;SDS011;33718;50.910;-1.514;2023-02-12T04:51:19;8.20;;;5.78;;
47958;SDS011;33718;50.910;-1.514;2023-02-12T04:53:20;12.10;;;4.95;;
47958;SDS011;33718;50.910;-1.514;2023-02-12T04:55:22;5.20;;;4.55;;
47958;SDS011;33718;50.910;-1.514;2023-02-12T04:57:25;8.93;;;5.95;;
47958;SDS011;33718;50.910;-1.514;2023-02-12T04:59:26;7.45;;;5.47;;
47958;SDS011;33718;50.910;-1.514;2023-02-12T05:03:35;5.60;;;4.22;;
47958;SDS011;33718;50.910;-1.514;2023-02-12T05:05:39;8.02;;;5.13;;
47958;SDS011;33718;50.910;-1.514;2023-02-12T05:07:41;15.00;;;5.75;;
47958;SDS011;33718;50.910;-1.514;2023-02-12T05:11:52;7.65;;;5.47;;
47958;SDS011;33718;50.910;-1.514;2023-02-12T05:13:54;7.82;;;4.70;;
47958;SDS011;33718;50.910;-1.514;2023-02-12T05:15:58;8.15;;;4.63;;
47958;SDS011;33718;50.910;-1.514;2023-02-12T05:18:00;9.18;;;4.32;;
47958;SDS011;33718;50.910;-1.514;2023-02-12T05:22:05;7.47;;;4.93;;
47958;SDS011;33718;50.910;-1.514;2023-02-12T05:24:07;9.73;;;4.55;;
47958;SDS011;33718;50.910;-1.514;2023-02-12T05:26:12;10.15;;;5.22;;
47958;SDS011;33718;50.910;-1.514;2023-02-12T05:28:14;7.72;;;4.68;;
47958;SDS011;33718;50.910;-1.514;2023-02-12T05:30:18;10.85;;;4.95;;
47958;SDS011;33718;50.910;-1.514;2023-02-12T05:32:20;11.88;;;5.30;;
47958;SDS011;33718;50.910;-1.514;2023-02-12T05:34:24;7.55;;;4.63;;
47958;SDS011;33718;50.910;-1.514;2023-02-12T05:38:29;7.07;;;4.97;;
47958;SDS011;33718;50.910;-1.514;2023-02-12T05:40:31;6.90;;;4.50;;
47958;SDS011;33718;50.910;-1.514;2023-02-12T05:42:35;8.35;;;4.85;;
47958;SDS011;33718;50.910;-1.514;2023-02-12T05:44:37;6.03;;;4.50;;
47958;SDS011;33718;50.910;-1.514;2023-02-12T05:46:44;7.78;;;3.83;;
47958;SDS011;33718;50.910;-1.514;2023-02-12T05:50:52;9.48;;;3.97;;
47958;SDS011;33718;50.910;-1.514;2023-02-12T05:52:58;8.95;;;5.95;;
47958;SDS011;33718;50.910;-1.514;2023-02-12T05:55:00;6.50;;;4.07;;
47958;SDS011;33718;50.910;-1.514;2023-02-12T05:59:06;7.85;;;3.75;;
47958;SDS011;33718;50.910;-1.514;2023-02-12T06:01:09;5.80;;;3.85;;
47958;SDS011;33718;50.910;-1.514;2023-02-12T06:03:11;5.85;;;3.78;;
47958;SDS011;33718;50.910;-1.514;2023-02-12T06:05:13;9.10;;;4.28;;
47958;SDS011;33718;50.910;-1.514;2023-02-12T06:07:14;4.82;;;4.30;;
47958;SDS011;33718;50.910;-1.514;2023-02-12T06:09:16;4.82;;;4.00;;
47958;SDS011;33718;50.910;-1.514;2023-02-12T06:11:20;8.25;;;4.88;;
47958;SDS011;33718;50.910;-1.514;2023-02-12T06:15:28;6.40;;;3.67;;
47958;SDS011;33718;50.910;-1.514;2023-02-12T06:17:30;6.45;;;4.28;;
47958;SDS011;33718;50.910;-1.514;2023-02-12T06:19:32;9.63;;;4.00;;
47958;SDS011;33718;50.910;-1.514;2023-02-12T06:21:33;10.10;;;4.38;;
47958;SDS011;33718;50.910;-1.514;2023-02-12T06:23:41;6.88;;;4.65;;
47958;SDS011;33718;50.910;-1.514;2023-02-12T06:25:42;6.10;;;4.50;;
47958;SDS011;33718;50.910;-1.514;2023-02-12T06:27:46;5.72;;;4.15;;
47958;SDS011;33718;50.910;-1.514;2023-02-12T06:29:50;10.13;;;4.60;;
47958;SDS011;33718;50.910;-1.514;2023-02-12T06:31:55;8.13;;;4.10;;
47958;SDS011;33718;50.910;-1.514;2023-02-12T06:33:58;6.45;;;3.95;;
47958;SDS011;33718;50.910;-1.514;2023-02-12T06:36:03;6.13;;;3.60;;
47958;SDS011;33718;50.910;-1.514;2023-02-12T06:38:08;7.57;;;4.32;;
47958;SDS011;33718;50.910;-1.514;2023-02-12T06:40:09;6.72;;;4.88;;
47958;SDS011;33718;50.910;-1.514;2023-02-12T06:44:15;4.93;;;3.63;;
47958;SDS011;33718;50.910;-1.514;2023-02-12T06:46:16;6.95;;;4.38;;
47958;SDS011;33718;50.910;-1.514;2023-02-12T06:48:21;7.20;;;4.38;;
47958;SDS011;33718;50.910;-1.514;2023-02-12T06:50:25;8.65;;;4.60;;
47958;SDS011;33718;50.910;-1.514;2023-02-12T06:52:27;10.07;;;5.63;;
47958;SDS011;33718;50.910;-1.514;2023-02-12T06:54:29;8.60;;;4.70;;
47958;SDS011;33718;50.910;-1.514;2023-02-12T06:58:38;7.30;;;4.47;;
47958;SDS011;33718;50.910;-1.514;2023-02-12T07:00:40;16.17;;;6.30;;
47958;SDS011;33718;50.910;-1.514;2023-02-12T07:02:41;7.80;;;5.40;;
47958;SDS011;33718;50.910;-1.514;2023-02-12T07:04:45;6.68;;;4.50;;
47958;SDS011;33718;50.910;-1.514;2023-02-12T07:07:05;14.88;;;6.03;;
47958;SDS011;33718;50.910;-1.514;2023-02-12T07:09:07;13.73;;;6.38;;
47958;SDS011;33718;50.910;-1.514;2023-02-12T07:11:09;9.45;;;5.47;;
47958;SDS011;33718;50.910;-1.514;2023-02-12T07:13:13;8.15;;;4.93;;
47958;SDS011;33718;50.910;-1.514;2023-02-12T07:15:15;6.78;;;4.68;;
47958;SDS011;33718;50.910;-1.514;2023-02-12T07:17:16;9.75;;;5.43;;
47958;SDS011;33718;50.910;-1.514;2023-02-12T07:19:18;9.10;;;5.10;;
47958;SDS011;33718;50.910;-1.514;2023-02-12T07:21:29;6.97;;;5.38;;
47958;SDS011;33718;50.910;-1.514;2023-02-12T07:23:46;10.48;;;8.07;;
47958;SDS011;33718;50.910;-1.514;2023-02-12T07:26:13;9.15;;;5.55;;
47958;SDS011;33718;50.910;-1.514;2023-02-12T07:28:35;7.47;;;4.75;;
47958;SDS011;33718;50.910;-1.514;2023-02-12T07:30:52;7.38;;;4.95;;
47958;SDS011;33718;50.910;-1.514;2023-02-12T07:33:01;11.23;;;5.30;;
47958;SDS011;33718;50.910;-1.514;2023-02-12T07:35:19;9.20;;;5.20;;
47958;SDS011;33718;50.910;-1.514;2023-02-12T07:37:32;7.80;;;5.50;;
47958;SDS011;33718;50.910;-1.514;2023-02-12T07:39:39;9.15;;;5.72;;
47958;SDS011;33718;50.910;-1.514;2023-02-12T07:41:52;10.48;;;4.70;;
47958;SDS011;33718;50.910;-1.514;2023-02-12T07:44:09;8.10;;;6.40;;
47958;SDS011;33718;50.910;-1.514;2023-02-12T07:46:25;8.73;;;6.70;;
47958;SDS011;33718;50.910;-1.514;2023-02-12T07:48:46;12.93;;;8.30;;
47958;SDS011;33718;50.910;-1.514;2023-02-12T07:51:01;14.02;;;8.55;;
47958;SDS011;33718;50.910;-1.514;2023-02-12T07:53:05;14.32;;;9.10;;
47958;SDS011;33718;50.910;-1.514;2023-02-12T07:55:26;16.08;;;9.38;;
47958;SDS011;33718;50.910;-1.514;2023-02-12T07:59:51;18.67;;;9.77;;
47958;SDS011;33718;50.910;-1.514;2023-02-12T08:01:59;14.55;;;8.23;;
47958;SDS011;33718;50.910;-1.514;2023-02-12T08:04:11;11.38;;;6.85;;
47958;SDS011;33718;50.910;-1.514;2023-02-12T08:06:18;10.85;;;6.72;;
47958;SDS011;33718;50.910;-1.514;2023-02-12T08:10:45;13.65;;;6.32;;
47958;SDS011;33718;50.910;-1.514;2023-02-12T08:12:47;13.63;;;8.02;;
47958;SDS011;33718;50.910;-1.514;2023-02-12T08:14:51;13.20;;;7.70;;
47958;SDS011;33718;50.910;-1.514;2023-02-12T08:18:59;15.70;;;8.48;;
47958;SDS011;33718;50.910;-1.514;2023-02-12T08:21:19;17.00;;;9.77;;
47958;SDS011;33718;50.910;-1.514;2023-02-12T08:23:20;15.80;;;9.18;;
47958;SDS011;33718;50.910;-1.514;2023-02-12T08:25:25;13.70;;;8.32;;
47958;SDS011;33718;50.910;-1.514;2023-02-12T08:27:26;16.40;;;8.95;;
47958;SDS011;33718;50.910;-1.514;2023-02-12T08:29:30;18.77;;;10.15;;
47958;SDS011;33718;50.910;-1.514;2023-02-12T08:31:33;19.70;;;10.05;;
47958;SDS011;33718;50.910;-1.514;2023-02-12T08:33:38;19.40;;;9.60;;
47958;SDS011;33718;50.910;-1.514;2023-02-12T08:35:42;14.40;;;8.63;;
47958;SDS011;33718;50.910;-1.514;2023-02-12T08:37:44;19.48;;;10.23;;
47958;SDS011;33718;50.910;-1.514;2023-02-12T08:39:47;19.90;;;9.63;;
47958;SDS011;33718;50.910;-1.514;2023-02-12T08:41:49;20.38;;;10.40;;
47958;SDS011;33718;50.910;-1.514;2023-02-12T08:46:14;13.48;;;9.07;;
47958;SDS011;33718;50.910;-1.514;2023-02-12T08:48:35;17.65;;;9.88;;
47958;SDS011;33718;50.910;-1.514;2023-02-12T08:52:43;15.60;;;9.30;;
47958;SDS011;33718;50.910;-1.514;2023-02-12T08:54:44;14.82;;;8.50;;
47958;SDS011;33718;50.910;-1.514;2023-02-12T08:56:46;16.52;;;9.20;;
47958;SDS011;33718;50.910;-1.514;2023-02-12T08:58:47;10.88;;;7.55;;
47958;SDS011;33718;50.910;-1.514;2023-02-12T09:00:49;11.63;;;7.75;;
47958;SDS011;33718;50.910;-1.514;2023-02-12T09:02:50;13.88;;;8.43;;
47958;SDS011;33718;50.910;-1.514;2023-02-12T09:04:55;12.75;;;7.10;;
47958;SDS011;33718;50.910;-1.514;2023-02-12T09:07:00;12.75;;;7.85;;
47958;SDS011;33718;50.910;-1.514;2023-02-12T09:09:20;14.13;;;7.25;;
47958;SDS011;33718;50.910;-1.514;2023-02-12T09:11:23;11.85;;;7.28;;
47958;SDS011;33718;50.910;-1.514;2023-02-12T09:13:34;11.77;;;7.55;;
47958;SDS011;33718;50.910;-1.514;2023-02-12T09:15:42;9.38;;;6.78;;
47958;SDS011;33718;50.910;-1.514;2023-02-12T09:17:48;10.23;;;6.35;;
47958;SDS011;33718;50.910;-1.514;2023-02-12T09:19:52;9.82;;;6.28;;
47958;SDS011;33718;50.910;-1.514;2023-02-12T09:22:00;11.55;;;7.30;;
47958;SDS011;33718;50.910;-1.514;2023-02-12T09:24:04;10.57;;;7.43;;
47958;SDS011;33718;50.910;-1.514;2023-02-12T09:28:10;33.60;;;8.93;;
47958;SDS011;33718;50.910;-1.514;2023-02-12T09:30:12;10.63;;;7.15;;
47958;SDS011;33718;50.910;-1.514;2023-02-12T09:32:17;12.63;;;7.47;;
47958;SDS011;33718;50.910;-1.514;2023-02-12T09:34:21;15.27;;;8.35;;
47958;SDS011;33718;50.910;-1.514;2023-02-12T09:38:27;10.57;;;6.97;;
47958;SDS011;33718;50.910;-1.514;2023-02-12T09:47:04;13.20;;;7.82;;
47958;SDS011;33718;50.910;-1.514;2023-02-12T09:49:32;13.68;;;9.02;;
47958;SDS011;33718;50.910;-1.514;2023-02-12T09:51:47;16.20;;;9.85;;
47958;SDS011;33718;50.910;-1.514;2023-02-12T09:56:26;17.23;;;10.25;;
47958;SDS011;33718;50.910;-1.514;2023-02-12T09:58:30;17.63;;;10.38;;
47958;SDS011;33718;50.910;-1.514;2023-02-12T10:00:51;15.10;;;10.63;;
47958;SDS011;33718;50.910;-1.514;2023-02-12T10:03:12;19.02;;;9.73;;
47958;SDS011;33718;50.910;-1.514;2023-02-12T10:05:16;18.75;;;10.27;;
47958;SDS011;33718;50.910;-1.514;2023-02-12T10:08:01;15.40;;;10.68;;
47958;SDS011;33718;50.910;-1.514;2023-02-12T10:10:24;16.13;;;10.35;;
47958;SDS011;33718;50.910;-1.514;2023-02-12T10:12:33;18.48;;;9.90;;
47958;SDS011;33718;50.910;-1.514;2023-02-12T10:14:46;17.88;;;11.27;;
47958;SDS011;33718;50.910;-1.514;2023-02-12T10:23:42;19.73;;;12.38;;
47958;SDS011;33718;50.910;-1.514;2023-02-12T10:28:44;17.88;;;11.63;;
47958;SDS011;33718;50.910;-1.514;2023-02-12T10:38:30;23.08;;;12.43;;
47958;SDS011;33718;50.910;-1.514;2023-02-12T10:40:43;22.30;;;13.13;;
47958;SDS011;33718;50.910;-1.514;2023-02-12T10:42:58;21.70;;;14.30;;
47958;SDS011;33718;50.910;-1.514;2023-02-12T10:45:14;24.90;;;14.40;;
47958;SDS011;33718;50.910;-1.514;2023-02-12T10:47:30;22.02;;;13.95;;
47958;SDS011;33718;50.910;-1.514;2023-02-12T10:49:43;22.80;;;14.32;;
47958;SDS011;33718;50.910;-1.514;2023-02-12T10:52:10;25.30;;;14.70;;
47958;SDS011;33718;50.910;-1.514;2023-02-12T10:56:42;26.67;;;14.02;;
47958;SDS011;33718;50.910;-1.514;2023-02-12T10:59:05;25.42;;;14.73;;
47958;SDS011;33718;50.910;-1.514;2023-02-12T11:01:16;23.73;;;14.52;;
47958;SDS011;33718;50.910;-1.514;2023-02-12T11:03:21;24.02;;;15.70;;
47958;SDS011;33718;50.910;-1.514;2023-02-12T11:05:24;27.80;;;14.23;;
47958;SDS011;33718;50.910;-1.514;2023-02-12T11:07:29;25.23;;;14.93;;
47958;SDS011;33718;50.910;-1.514;2023-02-12T11:09:49;27.55;;;14.70;;
47958;SDS011;33718;50.910;-1.514;2023-02-12T11:11:51;26.58;;;14.45;;
47958;SDS011;33718;50.910;-1.514;2023-02-12T11:16:01;27.52;;;15.32;;
47958;SDS011;33718;50.910;-1.514;2023-02-12T11:18:04;24.95;;;13.75;;
47958;SDS011;33718;50.910;-1.514;2023-02-12T11:22:13;23.00;;;13.50;;
47958;SDS011;33718;50.910;-1.514;2023-02-12T11:26:29;20.40;;;12.82;;
47958;SDS011;33718;50.910;-1.514;2023-02-12T11:28:32;16.60;;;9.73;;
47958;SDS011;33718;50.910;-1.514;2023-02-12T11:30:34;17.27;;;10.23;;
47958;SDS011;33718;50.910;-1.514;2023-02-12T11:32:39;15.75;;;8.57;;
47958;SDS011;33718;50.910;-1.514;2023-02-12T11:34:43;15.73;;;9.27;;
47958;SDS011;33718;50.910;-1.514;2023-02-12T11:36:48;16.17;;;9.45;;
47958;SDS011;33718;50.910;-1.514;2023-02-12T11:38:52;12.60;;;6.85;;
47958;SDS011;33718;50.910;-1.514;2023-02-12T11:40:59;14.45;;;7.07;;
47958;SDS011;33718;50.910;-1.514;2023-02-12T11:43:04;6.60;;;4.80;;
47958;SDS011;33718;50.910;-1.514;2023-02-12T11:45:14;6.13;;;4.43;;
47958;SDS011;33718;50.910;-1.514;2023-02-12T11:47:35;5.47;;;3.67;;
47958;SDS011;33718;50.910;-1.514;2023-02-12T11:49:47;7.10;;;3.78;;
47958;SDS011;33718;50.910;-1.514;2023-02-12T11:51:49;3.47;;;3.13;;
47958;SDS011;33718;50.910;-1.514;2023-02-12T11:53:51;3.78;;;2.20;;
47958;SDS011;33718;50.910;-1.514;2023-02-12T11:56:12;3.22;;;2.67;;
47958;SDS011;33718;50.910;-1.514;2023-02-12T11:58:15;2.28;;;1.73;;
47958;SDS011;33718;50.910;-1.514;2023-02-12T12:02:23;3.15;;;2.08;;
47958;SDS011;33718;50.910;-1.514;2023-02-12T12:04:29;3.38;;;1.33;;
47958;SDS011;33718;50.910;-1.514;2023-02-12T12:08:42;2.33;;;1.30;;
47958;SDS011;33718;50.910;-1.514;2023-02-12T12:12:50;1.45;;;1.30;;
47958;SDS011;33718;50.910;-1.514;2023-02-12T12:15:01;1.63;;;1.30;;
47958;SDS011;33718;50.910;-1.514;2023-02-12T12:17:29;1.15;;;1.00;;
47958;SDS011;33718;50.910;-1.514;2023-02-12T12:19:59;1.77;;;1.48;;
47958;SDS011;33718;50.910;-1.514;2023-02-12T12:24:36;2.08;;;1.52;;
47958;SDS011;33718;50.910;-1.514;2023-02-12T12:26:39;1.27;;;1.17;;
47958;SDS011;33718;50.910;-1.514;2023-02-12T12:28:51;1.35;;;0.80;;
47958;SDS011;33718;50.910;-1.514;2023-02-12T12:33:14;1.17;;;0.90;;
47958;SDS011;33718;50.910;-1.514;2023-02-12T12:35:43;2.80;;;0.60;;
47958;SDS011;33718;50.910;-1.514;2023-02-12T12:37:59;1.27;;;0.63;;
47958;SDS011;33718;50.910;-1.514;2023-02-12T12:40:06;2.67;;;0.90;;
47958;SDS011;33718;50.910;-1.514;2023-02-12T12:46:33;1.40;;;0.80;;
47958;SDS011;33718;50.910;-1.514;2023-02-12T12:48:54;2.05;;;0.40;;
47958;SDS011;33718;50.910;-1.514;2023-02-12T12:57:12;0.47;;;0.40;;
47958;SDS011;33718;50.910;-1.514;2023-02-12T13:10:00;2.42;;;1.30;;
47958;SDS011;33718;50.910;-1.514;2023-02-12T13:13:51;3.83;;;1.25;;
47958;SDS011;33718;50.910;-1.514;2023-02-12T13:18:08;1.33;;;1.23;;
47958;SDS011;33718;50.910;-1.514;2023-02-12T13:22:51;3.33;;;1.30;;
47958;SDS011;33718;50.910;-1.514;2023-02-12T13:25:17;2.47;;;1.48;;
47958;SDS011;33718;50.910;-1.514;2023-02-12T13:27:21;5.65;;;1.48;;
47958;SDS011;33718;50.910;-1.514;2023-02-12T13:29:44;9.15;;;2.08;;
47958;SDS011;33718;50.910;-1.514;2023-02-12T13:31:56;5.45;;;1.75;;
47958;SDS011;33718;50.910;-1.514;2023-02-12T13:34:16;9.48;;;2.20;;
47958;SDS011;33718;50.910;-1.514;2023-02-12T13:36:43;4.18;;;2.90;;
47958;SDS011;33718;50.910;-1.514;2023-02-12T13:39:31;12.52;;;7.35;;
47958;SDS011;33718;50.910;-1.514;2023-02-12T13:41:15;29.52;;;17.83;;
47958;SDS011;33718;50.910;-1.514;2023-02-12T13:43:35;15.10;;;11.32;;
47958;SDS011;33718;50.910;-1.514;2023-02-12T13:50:18;10.85;;;6.20;;
47958;SDS011;33718;50.910;-1.514;2023-02-12T13:52:35;6.47;;;3.42;;
47958;SDS011;33718;50.910;-1.514;2023-02-12T13:54:46;5.78;;;2.92;;
47958;SDS011;33718;50.910;-1.514;2023-02-12T13:56:53;5.38;;;3.58;;
47958;SDS011;33718;50.910;-1.514;2023-02-12T13:58:55;8.43;;;5.60;;
47958;SDS011;33718;50.910;-1.514;2023-02-12T14:01:01;4.03;;;3.10;;
47958;SDS011;33718;50.910;-1.514;2023-02-12T14:03:06;7.35;;;3.38;;
47958;SDS011;33718;50.910;-1.514;2023-02-12T14:05:15;7.53;;;3.30;;
47958;SDS011;33718;50.910;-1.514;2023-02-12T14:07:41;7.03;;;3.42;;
47958;SDS011;33718;50.910;-1.514;2023-02-12T14:14:46;7.70;;;3.65;;
47958;SDS011;33718;50.910;-1.514;2023-02-12T14:16:48;4.65;;;3.45;;
47958;SDS011;33718;50.910;-1.514;2023-02-12T14:23:23;3.90;;;3.53;;
47958;SDS011;33718;50.910;-1.514;2023-02-12T14:25:25;6.13;;;3.10;;
47958;SDS011;33718;50.910;-1.514;2023-02-12T14:30:00;7.35;;;5.40;;
47958;SDS011;33718;50.910;-1.514;2023-02-12T14:32:01;6.15;;;3.28;;
47958;SDS011;33718;50.910;-1.514;2023-02-12T14:36:12;4.60;;;2.45;;
47958;SDS011;33718;50.910;-1.514;2023-02-12T14:42:41;6.10;;;2.17;;
47958;SDS011;33718;50.910;-1.514;2023-02-12T14:44:46;13.45;;;3.30;;
47958;SDS011;33718;50.910;-1.514;2023-02-12T14:50:57;8.67;;;1.57;;
47958;SDS011;33718;50.910;-1.514;2023-02-12T14:55:26;2.88;;;1.42;;
47958;SDS011;33718;50.910;-1.514;2023-02-12T14:57:38;7.97;;;1.55;;
47958;SDS011;33718;50.910;-1.514;2023-02-12T14:59:43;2.38;;;1.33;;
47958;SDS011;33718;50.910;-1.514;2023-02-12T15:01:48;5.18;;;2.30;;
47958;SDS011;33718;50.910;-1.514;2023-02-12T15:03:51;2.80;;;1.05;;
47958;SDS011;33718;50.910;-1.514;2023-02-12T15:08:04;1.10;;;1.00;;
47958;SDS011;33718;50.910;-1.514;2023-02-12T15:10:12;4.32;;;0.90;;
47958;SDS011;33718;50.910;-1.514;2023-02-12T15:16:48;2.28;;;1.52;;
47958;SDS011;33718;50.910;-1.514;2023-02-12T15:18:57;2.03;;;1.30;;
47958;SDS011;33718;50.910;-1.514;2023-02-12T15:21:11;6.05;;;2.13;;
47958;SDS011;33718;50.910;-1.514;2023-02-12T15:25:34;2.42;;;1.80;;
47958;SDS011;33718;50.910;-1.514;2023-02-12T15:27:40;3.13;;;1.80;;
47958;SDS011;33718;50.910;-1.514;2023-02-12T15:29:43;3.33;;;1.87;;
47958;SDS011;33718;50.910;-1.514;2023-02-12T15:31:52;6.68;;;1.80;;
47958;SDS011;33718;50.910;-1.514;2023-02-12T15:34:14;4.15;;;1.67;;
47958;SDS011;33718;50.910;-1.514;2023-02-12T15:36:26;1.60;;;1.30;;
47958;SDS011;33718;50.910;-1.514;2023-02-12T15:38:32;2.60;;;1.55;;